Regal Star — ESCM — position and weather

sailwx.info

Track history (hours):
 
Tides and Currents Weather Stations Pressure Air Temp Water Temp Dewpoint Dewpoint Depression Visibility Wind Speed Wind Dir Waves Ship Positions

Regal Star

Last reported at 2018-Jan-21 16:07 UTC. Time now 2018-Jan-21 16:52 UTC.
Position N 59°21' E 024°01'.

Length 157 m; draft 5.8 m.

Type: Passenger vessel. MMSI: 276554000.

Date/timePositionNaut miles runAvg speedWind from/ knotsBaromVisibWave heightAir tempDewpointWater temp
2018-Jan-21 16:07N 59°21' E 024°01'1314.1
2018-Jan-21 15:11N 59°23' E 023°35'316.1
2018-Jan-21 15:00N 59°23' E 023°29'916.1
2018-Jan-21 14:27N 59°23' E 023°11'716.1
2018-Jan-21 14:01N 59°23' E 022°58'2116.2
2018-Jan-21 12:43N 59°25' E 022°17'316.1
2018-Jan-21 12:31N 59°26' E 022°10'1216.0
2018-Jan-21 11:47N 59°29' E 021°49'416.1
2018-Jan-21 11:31N 59°31' E 021°40'816.0
2018-Jan-21 11:01N 59°33' E 021°25'815.9
2018-Jan-21 10:31N 59°35' E 021°10'4815.5
2018-Jan-21 07:24N 59°45' E 019°37'615.8
2018-Jan-21 07:00N 59°46' E 019°24'815.5
2018-Jan-21 06:30N 59°44' E 019°10'3 4.8
2018-Jan-21 05:54N 59°43' E 019°04'0 0.0
2018-Jan-21 05:28N 59°43' E 019°04'3 6.3
2018-Jan-21 05:00N 59°44' E 019°10'714.2
2018-Jan-21 04:30N 59°46' E 019°23'713.2
2018-Jan-21 03:59N 59°45' E 019°37'714.1
2018-Jan-21 03:30N 59°43' E 019°49'4014.4
2018-Jan-21 00:42N 59°30' E 021°05'315.5
2018-Jan-21 00:30N 59°29' E 021°11'815.7
2018-Jan-21 00:00N 59°28' E 021°26'815.7
2018-Jan-20 23:30N 59°26' E 021°41'5515.5
2018-Jan-20 19:57N 59°22' E 023°29'6 0.4
2018-Jan-20 05:12N 59°23' E 023°40'514.9
2018-Jan-20 04:52N 59°23' E 023°30'714.9
2018-Jan-20 04:24N 59°23' E 023°16'614.5
2018-Jan-20 03:58N 59°23' E 023°04'3914.9
2018-Jan-20 01:19N 59°29' E 021°47'515.2
2018-Jan-20 01:00N 59°31' E 021°39'815.1
2018-Jan-20 00:30N 59°33' E 021°24'815.2
2018-Jan-20 00:00N 59°35' E 021°10'4714.9
2018-Jan-19 20:51N 59°45' E 019°39'515.3
2018-Jan-19 20:30N 59°46' E 019°28'714.8
2018-Jan-19 20:00N 59°44' E 019°14'5 9.6
2018-Jan-19 19:28N 59°43' E 019°04'0 0.0
2018-Jan-19 18:55N 59°43' E 019°04'0 0.0
2018-Jan-19 18:28N 59°43' E 019°04'0 0.0
2018-Jan-19 17:58N 59°43' E 019°04'0 0.0
2018-Jan-19 17:28N 59°43' E 019°04'0 0.0
2018-Jan-19 16:58N 59°43' E 019°04'0 0.0
2018-Jan-19 16:28N 59°43' E 019°04'0 0.0
2018-Jan-19 15:58N 59°43' E 019°04'0 0.0
2018-Jan-19 15:28N 59°43' E 019°04'0 0.0
2018-Jan-19 14:58N 59°43' E 019°04'0 0.0
2018-Jan-19 14:28N 59°43' E 019°04'0 0.0
2018-Jan-19 13:58N 59°43' E 019°04'0 0.0
2018-Jan-19 13:28N 59°43' E 019°04'0 0.0
2018-Jan-19 12:55N 59°43' E 019°04'0 0.0
2018-Jan-19 12:28N 59°43' E 019°04'0 0.0
2018-Jan-19 11:55N 59°43' E 019°04'62 5.6
2018-Jan-19 00:46N 59°30' E 021°04'415.7
2018-Jan-19 00:30N 59°29' E 021°11'815.5
2018-Jan-19 00:00N 59°28' E 021°26'815.4
2018-Jan-18 23:30N 59°26' E 021°41'57 3.1
2018-Jan-18 05:16N 59°23' E 023°34'614.8
2018-Jan-18 04:53N 59°23' E 023°23'615.0
2018-Jan-18 04:30N 59°23' E 023°12'4215.3
2018-Jan-18 01:44N 59°29' E 021°49'315.6
2018-Jan-18 01:30N 59°30' E 021°43'815.4
2018-Jan-18 01:00N 59°32' E 021°28'1515.4
2018-Jan-18 00:00N 59°37' E 020°59'115.6
2018-Jan-17 23:57N 59°37' E 020°57'  
2018-Jan-12 14:53N 59°43' E 019°04'0 0.0
2018-Jan-12 14:29N 59°43' E 019°04'0 0.0
2018-Jan-12 13:59N 59°43' E 019°04'0 0.0
2018-Jan-12 13:29N 59°43' E 019°04'0 0.0
2018-Jan-12 12:59N 59°43' E 019°04'0 0.0
2018-Jan-12 12:29N 59°43' E 019°04'0 0.0
2018-Jan-12 11:59N 59°43' E 019°04'0 0.0
2018-Jan-12 11:26N 59°43' E 019°04'0 0.0
2018-Jan-12 10:59N 59°43' E 019°04'0 0.0
2018-Jan-12 09:14N 59°43' E 019°04'0 0.0
2018-Jan-12 07:53N 59°43' E 019°04'0 0.0
2018-Jan-12 07:26N 59°43' E 019°04'0 0.0
2018-Jan-12 06:44N 59°43' E 019°04'0 0.0
2018-Jan-12 06:29N 59°43' E 019°04'0 0.0
2018-Jan-12 05:59N 59°43' E 019°04'0 0.0
2018-Jan-12 05:30N 59°43' E 019°04'3 5.6
2018-Jan-12 05:00N 59°44' E 019°09'815.2
2018-Jan-12 04:30N 59°46' E 019°24'815.3
2018-Jan-12 04:00N 59°45' E 019°39'815.3
2018-Jan-12 03:30N 59°42' E 019°53'611.9
2018-Jan-12 03:00N 59°39' E 020°03'611.0
2018-Jan-12 02:27N 59°36' E 020°14'715.4
2018-Jan-12 02:00N 59°35' E 020°27'815.5
2018-Jan-12 01:29N 59°33' E 020°42'915.6
2018-Jan-12 00:56N 59°31' E 020°59'715.1
2018-Jan-12 00:30N 59°29' E 021°12'815.3
2018-Jan-12 00:00N 59°28' E 021°26'815.4
2018-Jan-11 23:30N 59°26' E 021°41'3415.1
2018-Jan-11 21:14N 59°21' E 022°47'515.1
2018-Jan-11 20:55N 59°21' E 022°57'715.6
2018-Jan-11 20:27N 59°21' E 023°11'1415.5
2018-Jan-11 19:32N 59°22' E 023°39'015.5
2018-Jan-11 19:30N 59°22' E 023°40'815.9
2018-Jan-11 18:59N 59°23' E 023°56'  
Track history (hours):
 
Tides and Currents Weather Stations Pressure Air Temp Water Temp Dewpoint Dewpoint Depression Visibility Wind Speed Wind Dir Waves Ship Positions

Regal Star

Last reported at 2018-Jan-21 16:07 UTC. Time now 2018-Jan-21 16:52 UTC.
Position N 59°21' E 024°01'.

Length 157 m; draft 5.8 m.

Type: Passenger vessel. MMSI: 276554000.

Date/timePositionNaut miles runAvg speedWind from/ knotsBaromVisibWave heightAir tempDewpointWater temp
2018-Jan-21 16:07N 59°21' E 024°01'1314.1
2018-Jan-21 15:11N 59°23' E 023°35'316.1
2018-Jan-21 15:00N 59°23' E 023°29'916.1
2018-Jan-21 14:27N 59°23' E 023°11'716.1
2018-Jan-21 14:01N 59°23' E 022°58'2116.2
2018-Jan-21 12:43N 59°25' E 022°17'316.1
2018-Jan-21 12:31N 59°26' E 022°10'1216.0
2018-Jan-21 11:47N 59°29' E 021°49'416.1
2018-Jan-21 11:31N 59°31' E 021°40'816.0
2018-Jan-21 11:01N 59°33' E 021°25'815.9
2018-Jan-21 10:31N 59°35' E 021°10'4815.5
2018-Jan-21 07:24N 59°45' E 019°37'615.8
2018-Jan-21 07:00N 59°46' E 019°24'815.5
2018-Jan-21 06:30N 59°44' E 019°10'3 4.8
2018-Jan-21 05:54N 59°43' E 019°04'0 0.0
2018-Jan-21 05:28N 59°43' E 019°04'3 6.3
2018-Jan-21 05:00N 59°44' E 019°10'714.2
2018-Jan-21 04:30N 59°46' E 019°23'713.2
2018-Jan-21 03:59N 59°45' E 019°37'714.1
2018-Jan-21 03:30N 59°43' E 019°49'4014.4
2018-Jan-21 00:42N 59°30' E 021°05'315.5
2018-Jan-21 00:30N 59°29' E 021°11'815.7
2018-Jan-21 00:00N 59°28' E 021°26'815.7
2018-Jan-20 23:30N 59°26' E 021°41'5515.5
2018-Jan-20 19:57N 59°22' E 023°29'6 0.4
2018-Jan-20 05:12N 59°23' E 023°40'514.9
2018-Jan-20 04:52N 59°23' E 023°30'714.9
2018-Jan-20 04:24N 59°23' E 023°16'614.5
2018-Jan-20 03:58N 59°23' E 023°04'3914.9
2018-Jan-20 01:19N 59°29' E 021°47'515.2
2018-Jan-20 01:00N 59°31' E 021°39'815.1
2018-Jan-20 00:30N 59°33' E 021°24'815.2
2018-Jan-20 00:00N 59°35' E 021°10'4714.9
2018-Jan-19 20:51N 59°45' E 019°39'515.3
2018-Jan-19 20:30N 59°46' E 019°28'714.8
2018-Jan-19 20:00N 59°44' E 019°14'5 9.6
2018-Jan-19 19:28N 59°43' E 019°04'0 0.0
2018-Jan-19 18:55N 59°43' E 019°04'0 0.0
2018-Jan-19 18:28N 59°43' E 019°04'0 0.0
2018-Jan-19 17:58N 59°43' E 019°04'0 0.0
2018-Jan-19 17:28N 59°43' E 019°04'0 0.0
2018-Jan-19 16:58N 59°43' E 019°04'0 0.0
2018-Jan-19 16:28N 59°43' E 019°04'0 0.0
2018-Jan-19 15:58N 59°43' E 019°04'0 0.0
2018-Jan-19 15:28N 59°43' E 019°04'0 0.0
2018-Jan-19 14:58N 59°43' E 019°04'0 0.0
2018-Jan-19 14:28N 59°43' E 019°04'0 0.0
2018-Jan-19 13:58N 59°43' E 019°04'0 0.0
2018-Jan-19 13:28N 59°43' E 019°04'0 0.0
2018-Jan-19 12:55N 59°43' E 019°04'0 0.0
2018-Jan-19 12:28N 59°43' E 019°04'0 0.0
2018-Jan-19 11:55N 59°43' E 019°04'62 5.6
2018-Jan-19 00:46N 59°30' E 021°04'415.7
2018-Jan-19 00:30N 59°29' E 021°11'815.5
2018-Jan-19 00:00N 59°28' E 021°26'815.4
2018-Jan-18 23:30N 59°26' E 021°41'57 3.1
2018-Jan-18 05:16N 59°23' E 023°34'614.8
2018-Jan-18 04:53N 59°23' E 023°23'615.0
2018-Jan-18 04:30N 59°23' E 023°12'4215.3
2018-Jan-18 01:44N 59°29' E 021°49'315.6
2018-Jan-18 01:30N 59°30' E 021°43'815.4
2018-Jan-18 01:00N 59°32' E 021°28'1515.4
2018-Jan-18 00:00N 59°37' E 020°59'115.6
2018-Jan-17 23:57N 59°37' E 020°57'  
2018-Jan-12 14:53N 59°43' E 019°04'0 0.0
2018-Jan-12 14:29N 59°43' E 019°04'0 0.0
2018-Jan-12 13:59N 59°43' E 019°04'0 0.0
2018-Jan-12 13:29N 59°43' E 019°04'0 0.0
2018-Jan-12 12:59N 59°43' E 019°04'0 0.0
2018-Jan-12 12:29N 59°43' E 019°04'0 0.0
2018-Jan-12 11:59N 59°43' E 019°04'0 0.0
2018-Jan-12 11:26N 59°43' E 019°04'0 0.0
2018-Jan-12 10:59N 59°43' E 019°04'0 0.0
2018-Jan-12 09:14N 59°43' E 019°04'0 0.0
2018-Jan-12 07:53N 59°43' E 019°04'0 0.0
2018-Jan-12 07:26N 59°43' E 019°04'0 0.0
2018-Jan-12 06:44N 59°43' E 019°04'0 0.0
2018-Jan-12 06:29N 59°43' E 019°04'0 0.0
2018-Jan-12 05:59N 59°43' E 019°04'0 0.0
2018-Jan-12 05:30N 59°43' E 019°04'3 5.6
2018-Jan-12 05:00N 59°44' E 019°09'815.2
2018-Jan-12 04:30N 59°46' E 019°24'815.3
2018-Jan-12 04:00N 59°45' E 019°39'815.3
2018-Jan-12 03:30N 59°42' E 019°53'611.9
2018-Jan-12 03:00N 59°39' E 020°03'611.0
2018-Jan-12 02:27N 59°36' E 020°14'715.4
2018-Jan-12 02:00N 59°35' E 020°27'815.5
2018-Jan-12 01:29N 59°33' E 020°42'915.6
2018-Jan-12 00:56N 59°31' E 020°59'715.1
2018-Jan-12 00:30N 59°29' E 021°12'815.3
2018-Jan-12 00:00N 59°28' E 021°26'815.4
2018-Jan-11 23:30N 59°26' E 021°41'3415.1
2018-Jan-11 21:14N 59°21' E 022°47'515.1
2018-Jan-11 20:55N 59°21' E 022°57'715.6
2018-Jan-11 20:27N 59°21' E 023°11'1415.5
2018-Jan-11 19:32N 59°22' E 023°39'015.5
2018-Jan-11 19:30N 59°22' E 023°40'815.9
2018-Jan-11 18:59N 59°23' E 023°56'  

Dump ship's entire track history